Time;durP1;ratioP1;P1;durP2;ratioP2;P2;SDS_P1;SDS_P2;PMS_P1;PMS_P2;Temp;Humidity;BMP_temperature;BMP_pressure;BME280_temperature;BME280_humidity;BME280_pressure;Samples;Min_cycle;Max_cycle;Signal;HPM_P1;HPM_P2
2023/08/02 00:00:11;;;;;;;;;2.00;2.00;;;;;-143.47;100.00;63865.75;2103924;28;46873;-49
2023/08/02 00:01:11;;;;;;;;;2.33;2.33;;;;;-143.47;100.00;63865.75;2104890;27;46513;-53
2023/08/02 00:02:12;;;;;;;;;2.33;1.00;;;;;-143.47;100.00;63865.75;2100919;27;46521;-51
2023/08/02 00:03:13;;;;;;;;;2.67;2.00;;;;;-143.47;100.00;63865.75;2104581;27;46643;-51
2023/08/02 00:04:14;;;;;;;;;1.00;1.00;;;;;-143.47;100.00;63865.75;2101774;28;46891;-50
2023/08/02 00:05:14;;;;;;;;;8.20;8.20;;;;;-143.47;100.00;63865.75;2099209;27;47055;-51
2023/08/02 00:06:15;;;;;;;;;7.67;6.67;;;;;-143.47;100.00;63865.75;2097772;27;45952;-51
2023/08/02 00:07:15;;;;;;;;;4.00;4.00;;;;;-143.47;100.00;63865.75;2100581;28;46834;-50
2023/08/02 00:08:15;;;;;;;;;2.00;1.33;;;;;-143.47;100.00;63865.75;2101401;27;46626;-52
2023/08/02 00:09:16;;;;;;;;;18.00;15.25;;;;;-143.47;100.00;63865.75;2103603;28;46871;-51
2023/08/02 00:10:16;;;;;;;;;21.50;21.00;;;;;-143.47;100.00;63865.75;2100010;27;46711;-49
2023/08/02 00:11:17;;;;;;;;;16.25;13.00;;;;;-143.47;100.00;63865.75;2103119;27;46115;-51
2023/08/02 00:12:17;;;;;;;;;6.80;6.80;;;;;-143.47;100.00;63865.75;2101777;28;46208;-50
2023/08/02 00:13:18;;;;;;;;;10.75;8.75;;;;;-143.47;100.00;63865.75;2099377;28;46315;-50
2023/08/02 00:14:18;;;;;;;;;4.00;4.00;;;;;-143.47;100.00;63865.75;2095318;28;46887;-52
2023/08/02 00:15:19;;;;;;;;;5.00;5.00;;;;;-143.47;100.00;63865.75;2094287;28;46195;-52
2023/08/02 00:16:20;;;;;;;;;1.00;1.00;;;;;-143.47;100.00;63865.75;2096277;28;46090;-53
2023/08/02 00:17:20;;;;;;;;;1.00;1.00;;;;;-143.47;100.00;63865.75;2101889;28;46283;-51
2023/08/02 00:18:20;;;;;;;;;4.00;2.00;;;;;-143.47;100.00;63865.75;2095450;28;46445;-51
2023/08/02 00:19:21;;;;;;;;;0.00;0.00;;;;;-143.47;100.00;63865.75;2095517;28;46519;-51
2023/08/02 00:20:21;;;;;;;;;0.00;0.00;;;;;-143.47;100.00;63865.75;2102037;28;46740;-49
2023/08/02 00:21:21;;;;;;;;;1.00;1.00;;;;;-143.47;100.00;63865.75;2101032;27;46341;-51
2023/08/02 00:22:22;;;;;;;;;1.00;1.00;;;;;-143.47;100.00;63865.75;2104936;27;46365;-53
2023/08/02 00:23:22;;;;;;;;;1.67;0.67;;;;;-143.47;100.00;63865.75;2104311;27;46317;-52
2023/08/02 00:24:22;;;;;;;;;1.00;1.00;;;;;-143.47;100.00;63865.75;2100421;27;46976;-49
2023/08/02 00:25:24;;;;;;;;;8.25;8.25;;;;;-143.47;100.00;63865.75;2102859;28;46246;-51
2023/08/02 00:26:24;;;;;;;;;14.20;13.00;;;;;-143.47;100.00;63865.75;2101837;27;47015;-52
2023/08/02 00:27:25;;;;;;;;;10.75;9.75;;;;;-143.47;100.00;63865.75;2104342;27;46311;-52
2023/08/02 00:28:25;;;;;;;;;8.33;6.00;;;;;-143.47;100.00;63865.75;2100863;28;46638;-52
2023/08/02 00:29:25;;;;;;;;;0.00;0.00;;;;;-143.47;100.00;63865.75;2100328;28;46702;-52
2023/08/02 00:30:26;;;;;;;;;2.00;1.67;;;;;-143.47;100.00;63865.75;2095763;28;46686;-49
2023/08/02 00:31:26;;;;;;;;;1.33;1.00;;;;;-143.47;100.00;63865.75;2092070;28;46992;-49
2023/08/02 00:32:26;;;;;;;;;2.00;2.00;;;;;-143.47;100.00;63865.75;2103490;28;46300;-51
2023/08/02 00:33:27;;;;;;;;;0.33;0.00;;;;;-143.47;100.00;63865.75;2101253;28;46188;-50
2023/08/02 00:34:27;;;;;;;;;1.67;1.67;;;;;-143.47;100.00;63865.75;2101688;27;46210;-50
2023/08/02 00:35:27;;;;;;;;;3.67;3.00;;;;;-143.47;100.00;63865.75;2104503;27;46837;-51
2023/08/02 00:36:28;;;;;;;;;0.00;0.00;;;;;-143.47;100.00;63865.75;2101813;27;46532;-50
2023/08/02 00:37:29;;;;;;;;;3.67;3.67;;;;;-143.47;100.00;63865.75;2101980;27;46188;-50
2023/08/02 00:38:31;;;;;;;;;0.75;0.75;;;;;-143.47;100.00;63865.75;2097502;27;46846;-48
2023/08/02 00:39:32;;;;;;;;;0.00;0.00;;;;;-143.47;100.00;63865.75;2098151;28;46494;-50
2023/08/02 00:40:32;;;;;;;;;1.67;1.67;;;;;-143.47;100.00;63865.75;2103129;27;46894;-49
2023/08/02 00:41:32;;;;;;;;;1.00;1.00;;;;;-143.47;100.00;63865.75;2103100;28;46624;-52
2023/08/02 00:42:33;;;;;;;;;1.00;0.00;;;;;-143.47;100.00;63865.75;2100217;27;46890;-53
2023/08/02 00:43:45;;;;;;;;;1.67;1.00;;;;;-143.47;100.00;63865.75;2104738;27;46618;-50
2023/08/02 00:44:45;;;;;;;;;0.00;0.00;;;;;-143.47;100.00;63865.75;2101873;28;46306;-49
2023/08/02 00:45:45;;;;;;;;;1.00;0.00;;;;;-143.47;100.00;63865.75;2102023;27;46238;-54
2023/08/02 00:46:46;;;;;;;;;2.33;1.00;;;;;-143.47;100.00;63865.75;2094739;28;45563;-51
2023/08/02 00:47:46;;;;;;;;;3.33;3.33;;;;;-143.47;100.00;63865.75;2081750;28;46809;-52
2023/08/02 00:48:47;;;;;;;;;0.67;0.67;;;;;-143.47;100.00;63865.75;2094006;28;46428;-51
2023/08/02 00:49:47;;;;;;;;;0.67;0.67;;;;;-143.47;100.00;63865.75;2097806;28;46670;-52
2023/08/02 00:50:48;;;;;;;;;0.00;0.00;;;;;-143.47;100.00;63865.75;2096486;28;46354;-52
2023/08/02 00:51:48;;;;;;;;;0.00;0.00;;;;;-143.47;100.00;63865.75;2102565;28;46573;-51
2023/08/02 00:52:49;;;;;;;;;1.33;0.00;;;;;-143.47;100.00;63865.75;2101030;28;46653;-49
2023/08/02 00:53:49;;;;;;;;;0.00;0.00;;;;;-143.47;100.00;63865.75;2099983;27;46671;-52
2023/08/02 00:54:50;;;;;;;;;0.00;0.00;;;;;-143.47;100.00;63865.75;2104626;27;46643;-48
2023/08/02 00:55:51;;;;;;;;;1.33;1.00;;;;;-143.47;100.00;63865.75;2100051;27;46336;-52
2023/08/02 00:56:53;;;;;;;;;0.75;0.75;;;;;-143.47;100.00;63865.75;2102030;27;46653;-48
2023/08/02 00:57:54;;;;;;;;;0.00;0.00;;;;;-143.47;100.00;63865.75;2104642;28;46802;-51
2023/08/02 00:58:54;;;;;;;;;0.00;0.00;;;;;-143.47;100.00;63865.75;2106058;27;46386;-50
2023/08/02 00:59:54;;;;;;;;;0.00;0.00;;;;;-143.47;100.00;63865.75;2104838;27;46649;-52
2023/08/02 01:00:55;;;;;;;;;0.00;0.00;;;;;-143.47;100.00;63865.75;2105067;28;46174;-53
2023/08/02 01:01:56;;;;;;;;;0.00;0.00;;;;;-143.47;100.00;63865.75;2101224;28;46295;-52
2023/08/02 01:02:56;;;;;;;;;0.00;0.00;;;;;-143.47;100.00;63865.75;2104966;28;46727;-50
2023/08/02 01:03:57;;;;;;;;;0.33;0.00;;;;;-143.47;100.00;63865.75;2101780;27;46766;-52
2023/08/02 01:04:58;;;;;;;;;0.00;0.00;;;;;-143.47;100.00;63865.75;2101662;28;46611;-48
2023/08/02 01:06:05;;;;;;;;;2.00;1.00;;;;;-143.47;100.00;63865.75;2096446;28;46408;-46
2023/08/02 01:07:28;;;;;;;;;0.25;0.25;;;;;-143.47;100.00;63865.75;2096658;28;46632;-47
2023/08/02 01:08:36;;;;;;;;;0.00;0.00;;;;;-143.47;100.00;63865.75;2100752;27;46675;-48
2023/08/02 01:09:52;;;;;;;;;0.00;0.00;;;;;-143.47;100.00;63865.75;2104397;28;46761;-51
2023/08/02 01:11:04;;;;;;;;;0.00;0.00;;;;;-143.47;100.00;63865.75;2102461;28;46704;-48
2023/08/02 01:12:09;;;;;;;;;0.50;0.00;;;;;-143.47;100.00;63865.75;2099233;27;46517;-51
2023/08/02 01:13:13;;;;;;;;;0.75;0.50;;;;;-143.47;100.00;63865.75;2098782;27;46517;-48
2023/08/02 01:14:20;;;;;;;;;0.00;0.00;;;;;-143.47;100.00;63865.75;2096924;28;46294;-49
2023/08/02 01:15:21;;;;;;;;;0.50;0.50;;;;;-143.47;100.00;63865.75;2097046;28;46699;-49
2023/08/02 01:16:23;;;;;;;;;2.00;1.33;;;;;-143.47;100.00;63865.75;2096975;28;46222;-46
2023/08/02 01:17:25;;;;;;;;;0.00;0.00;;;;;-143.47;100.00;63865.75;2097526;28;46533;-49
2023/08/02 01:18:26;;;;;;;;;3.00;1.00;;;;;-143.47;100.00;63865.75;2096833;28;46552;-50
2023/08/02 01:19:26;;;;;;;;;1.33;0.00;;;;;-143.47;100.00;63865.75;2096875;28;46321;-47
2023/08/02 01:20:27;;;;;;;;;0.33;0.33;;;;;-143.47;100.00;63865.75;2097302;28;46636;-50
2023/08/02 01:21:27;;;;;;;;;0.00;0.00;;;;;-143.47;100.00;63865.75;2097203;28;46061;-48
2023/08/02 01:22:28;;;;;;;;;1.00;1.00;;;;;-143.47;100.00;63865.75;2097781;28;46216;-51
2023/08/02 01:23:29;;;;;;;;;0.00;0.00;;;;;-143.47;100.00;63865.75;2097588;28;46179;-49
2023/08/02 01:24:34;;;;;;;;;0.00;0.00;;;;;-143.47;100.00;63865.75;2095802;28;46544;-51
2023/08/02 01:25:37;;;;;;;;;0.25;0.25;;;;;-143.47;100.00;63865.75;2097353;28;46440;-51
2023/08/02 01:26:42;;;;;;;;;0.00;0.00;;;;;-143.47;100.00;63865.75;2097639;28;46774;-52
2023/08/02 01:27:46;;;;;;;;;0.00;0.00;;;;;-143.47;100.00;63865.75;2097326;28;46715;-51
2023/08/02 01:28:54;;;;;;;;;0.00;0.00;;;;;-143.47;100.00;63865.75;2097408;28;46372;-52
2023/08/02 01:29:57;;;;;;;;;0.00;0.00;;;;;-143.47;100.00;63865.75;2097968;28;46688;-51
2023/08/02 01:31:00;;;;;;;;;0.00;0.00;;;;;-143.47;100.00;63865.75;2095979;28;46560;-48
2023/08/02 01:32:02;;;;;;;;;0.00;0.00;;;;;-143.47;100.00;63865.75;2088570;28;46289;-49
2023/08/02 01:33:04;;;;;;;;;0.00;0.00;;;;;-143.47;100.00;63865.75;2080451;28;47473;-50
2023/08/02 01:34:05;;;;;;;;;0.00;0.00;;;;;-143.47;100.00;63865.75;2101307;28;46292;-49
2023/08/02 01:35:08;;;;;;;;;0.00;0.00;;;;;-143.47;100.00;63865.75;2112281;27;46580;-51
2023/08/02 01:36:08;;;;;;;;;2.75;1.75;;;;;-143.47;100.00;63865.75;2097565;28;46824;-50
2023/08/02 01:37:08;;;;;;;;;0.00;0.00;;;;;-143.47;100.00;63865.75;2097808;28;46526;-49
2023/08/02 01:38:09;;;;;;;;;0.00;0.00;;;;;-143.47;100.00;63865.75;2097321;28;46461;-48
2023/08/02 01:39:11;;;;;;;;;0.00;0.00;;;;;-143.47;100.00;63865.75;2097194;28;46156;-48
2023/08/02 01:40:13;;;;;;;;;0.00;0.00;;;;;-143.47;100.00;63865.75;2096323;28;46427;-48
2023/08/02 01:41:14;;;;;;;;;0.00;0.00;;;;;-143.47;100.00;63865.75;2087621;28;46716;-48
2023/08/02 01:42:14;;;;;;;;;2.33;2.33;;;;;-143.47;100.00;63865.75;2088238;28;46274;-51
2023/08/02 01:43:14;;;;;;;;;0.00;0.00;;;;;-143.47;100.00;63865.75;2089048;28;46829;-47
2023/08/02 01:44:15;;;;;;;;;0.00;0.00;;;;;-143.47;100.00;63865.75;2096932;28;46641;-49
2023/08/02 01:45:15;;;;;;;;;0.67;0.67;;;;;-143.47;100.00;63865.75;2097399;28;46659;-47
2023/08/02 01:46:15;;;;;;;;;0.00;0.00;;;;;-143.47;100.00;63865.75;2096997;28;46465;-48
2023/08/02 01:47:17;;;;;;;;;0.00;0.00;;;;;-143.47;100.00;63865.75;2097839;28;46558;-47
2023/08/02 01:48:17;;;;;;;;;0.00;0.00;;;;;-143.47;100.00;63865.75;2095624;28;47068;-48
2023/08/02 01:49:18;;;;;;;;;0.00;0.00;;;;;-143.47;100.00;63865.75;2091326;28;46562;-47
2023/08/02 01:50:18;;;;;;;;;0.00;0.00;;;;;-143.47;100.00;63865.75;2097138;28;46595;-47
2023/08/02 01:51:18;;;;;;;;;0.00;0.00;;;;;-143.47;100.00;63865.75;2097313;28;46739;-49
2023/08/02 01:52:19;;;;;;;;;0.00;0.00;;;;;-143.47;100.00;63865.75;2096893;28;46360;-48
2023/08/02 01:53:19;;;;;;;;;0.00;0.00;;;;;-143.47;100.00;63865.75;2097666;28;46904;-50
2023/08/02 01:54:19;;;;;;;;;0.00;0.00;;;;;-143.47;100.00;63865.75;2097246;28;46656;-49
2023/08/02 01:55:20;;;;;;;;;0.00;0.00;;;;;-143.47;100.00;63865.75;2096759;28;46643;-49
2023/08/02 01:56:20;;;;;;;;;0.00;0.00;;;;;-143.47;100.00;63865.75;2103849;28;47339;-48
2023/08/02 01:57:21;;;;;;;;;0.00;0.00;;;;;-143.47;100.00;63865.75;2096694;28;46524;-51
2023/08/02 01:58:21;;;;;;;;;0.00;0.00;;;;;-143.47;100.00;63865.75;2093012;28;46872;-48
2023/08/02 01:59:21;;;;;;;;;0.00;0.00;;;;;-143.47;100.00;63865.75;2097936;28;45867;-51
2023/08/02 02:00:22;;;;;;;;;0.00;0.00;;;;;-143.47;100.00;63865.75;2097179;28;45121;-51
2023/08/02 02:01:22;;;;;;;;;0.00;0.00;;;;;-143.47;100.00;63865.75;2097102;28;46166;-51
2023/08/02 02:02:22;;;;;;;;;0.00;0.00;;;;;-143.47;100.00;63865.75;2095642;28;46311;-49
2023/08/02 02:03:23;;;;;;;;;0.00;0.00;;;;;-143.47;100.00;63865.75;2095800;28;46245;-47
2023/08/02 02:04:23;;;;;;;;;0.00;0.00;;;;;-143.47;100.00;63865.75;2097231;28;46568;-49
2023/08/02 02:05:23;;;;;;;;;0.00;0.00;;;;;-143.47;100.00;63865.75;2096237;28;46583;-49
2023/08/02 02:06:24;;;;;;;;;0.00;0.00;;;;;-143.47;100.00;63865.75;2096397;28;45544;-47
2023/08/02 02:07:24;;;;;;;;;0.00;0.00;;;;;-143.47;100.00;63865.75;2105684;28;46206;-48
2023/08/02 02:08:24;;;;;;;;;0.00;0.00;;;;;-143.47;100.00;63865.75;2104573;27;46380;-50
2023/08/02 02:09:25;;;;;;;;;0.00;0.00;;;;;-143.47;100.00;63865.75;2097386;28;46026;-46
2023/08/02 02:10:25;;;;;;;;;0.00;0.00;;;;;-143.47;100.00;63865.75;2097512;28;46282;-50
2023/08/02 02:11:25;;;;;;;;;0.00;0.00;;;;;-143.47;100.00;63865.75;2097692;28;46418;-50
2023/08/02 02:12:27;;;;;;;;;0.00;0.00;;;;;-143.47;100.00;63865.75;2097227;28;46444;-48
2023/08/02 02:13:27;;;;;;;;;0.00;0.00;;;;;-143.47;100.00;63865.75;2102593;28;46601;-48
2023/08/02 02:14:27;;;;;;;;;0.00;0.00;;;;;-143.47;100.00;63865.75;2104405;27;46671;-49
2023/08/02 02:15:28;;;;;;;;;0.00;0.00;;;;;-143.47;100.00;63865.75;2097210;28;46425;-47
2023/08/02 02:16:29;;;;;;;;;0.00;0.00;;;;;-143.47;100.00;63865.75;2096820;28;46606;-49
2023/08/02 02:17:29;;;;;;;;;0.00;0.00;;;;;-143.47;100.00;63865.75;2097069;28;46430;-48
2023/08/02 02:18:30;;;;;;;;;0.00;0.00;;;;;-143.47;100.00;63865.75;2097084;28;46555;-47
2023/08/02 02:19:30;;;;;;;;;0.00;0.00;;;;;-143.47;100.00;63865.75;2098214;28;46359;-49
2023/08/02 02:20:31;;;;;;;;;0.00;0.00;;;;;-143.47;100.00;63865.75;2097204;28;46390;-50
2023/08/02 02:21:31;;;;;;;;;0.00;0.00;;;;;-143.47;100.00;63865.75;2098025;28;47217;-46
2023/08/02 02:22:31;;;;;;;;;0.00;0.00;;;;;-143.47;100.00;63865.75;2098487;28;46941;-48
2023/08/02 02:23:32;;;;;;;;;0.00;0.00;;;;;-143.47;100.00;63865.75;2097194;28;46840;-50
2023/08/02 02:24:33;;;;;;;;;0.00;0.00;;;;;-143.47;100.00;63865.75;2098987;28;46554;-52
2023/08/02 02:25:33;;;;;;;;;0.00;0.00;;;;;-143.47;100.00;63865.75;2097465;28;46497;-48
2023/08/02 02:26:34;;;;;;;;;0.00;0.00;;;;;-143.47;100.00;63865.75;2096616;27;46236;-49
2023/08/02 02:27:34;;;;;;;;;0.00;0.00;;;;;-143.47;100.00;63865.75;2100448;28;46228;-52
2023/08/02 02:28:34;;;;;;;;;0.00;0.00;;;;;-143.47;100.00;63865.75;2096512;28;46797;-50
2023/08/02 02:29:35;;;;;;;;;1.67;0.67;;;;;-143.47;100.00;63865.75;2098377;28;46820;-50
2023/08/02 02:30:35;;;;;;;;;0.00;0.00;;;;;-143.47;100.00;63865.75;2098796;28;46225;-49
2023/08/02 02:31:35;;;;;;;;;0.00;0.00;;;;;-143.47;100.00;63865.75;2097127;28;46817;-49
2023/08/02 02:32:36;;;;;;;;;0.00;0.00;;;;;-143.47;100.00;63865.75;2097563;28;46597;-49
2023/08/02 02:33:36;;;;;;;;;0.00;0.00;;;;;-143.47;100.00;63865.75;2096861;28;46808;-50
2023/08/02 02:34:36;;;;;;;;;0.00;0.00;;;;;-143.47;100.00;63865.75;2100445;28;46238;-49
2023/08/02 02:35:37;;;;;;;;;0.00;0.00;;;;;-143.47;100.00;63865.75;2098192;28;46637;-51
2023/08/02 02:36:38;;;;;;;;;0.00;0.00;;;;;-143.47;100.00;63865.75;2104898;28;46645;-49
2023/08/02 02:37:38;;;;;;;;;0.00;0.00;;;;;-143.47;100.00;63865.75;2104733;27;47107;-51
2023/08/02 02:38:39;;;;;;;;;0.00;0.00;;;;;-143.47;100.00;63865.75;2101018;28;46421;-51
2023/08/02 02:39:39;;;;;;;;;0.00;0.00;;;;;-143.47;100.00;63865.75;2095299;28;46089;-52
2023/08/02 02:40:39;;;;;;;;;0.00;0.00;;;;;-143.47;100.00;63865.75;2101203;28;46394;-51
2023/08/02 02:41:39;;;;;;;;;0.00;0.00;;;;;-143.47;100.00;63865.75;2105007;27;45951;-50
2023/08/02 02:42:43;;;;;;;;;0.00;0.00;;;;;-143.47;100.00;63865.75;2103248;27;45962;-49
2023/08/02 02:43:44;;;;;;;;;0.00;0.00;;;;;-143.47;100.00;63865.75;2105192;27;46969;-51
2023/08/02 02:44:44;;;;;;;;;0.00;0.00;;;;;-143.47;100.00;63865.75;2105285;28;46137;-52
2023/08/02 02:45:44;;;;;;;;;0.00;0.00;;;;;-143.47;100.00;63865.75;2105766;27;46019;-50
2023/08/02 02:46:45;;;;;;;;;1.33;0.00;;;;;-143.47;100.00;63865.75;2104590;28;46507;-50
2023/08/02 02:47:45;;;;;;;;;0.00;0.00;;;;;-143.47;100.00;63865.75;2105586;27;46046;-52
2023/08/02 02:48:45;;;;;;;;;0.00;0.00;;;;;-143.47;100.00;63865.75;2105120;27;45535;-51
2023/08/02 02:49:46;;;;;;;;;0.00;0.00;;;;;-143.47;100.00;63865.75;2098997;27;45914;-50
2023/08/02 02:50:46;;;;;;;;;0.00;0.00;;;;;-143.47;100.00;63865.75;2104702;28;46698;-50
2023/08/02 02:51:46;;;;;;;;;0.00;0.00;;;;;-143.47;100.00;63865.75;2104794;28;46326;-48
2023/08/02 02:52:47;;;;;;;;;0.00;0.00;;;;;-143.47;100.00;63865.75;2104509;28;46545;-50
2023/08/02 02:53:47;;;;;;;;;0.00;0.00;;;;;-143.47;100.00;63865.75;2104773;28;46492;-49
2023/08/02 02:54:47;;;;;;;;;0.00;0.00;;;;;-143.47;100.00;63865.75;2104997;27;45352;-50
2023/08/02 02:55:48;;;;;;;;;0.00;0.00;;;;;-143.47;100.00;63865.75;2105269;27;46191;-50
2023/08/02 02:56:48;;;;;;;;;0.00;0.00;;;;;-143.47;100.00;63865.75;2104648;27;46537;-52
2023/08/02 02:57:50;;;;;;;;;0.00;0.00;;;;;-143.47;100.00;63865.75;2105511;27;46195;-49
2023/08/02 02:58:51;;;;;;;;;0.00;0.00;;;;;-143.47;100.00;63865.75;2104288;28;46847;-49
2023/08/02 02:59:51;;;;;;;;;0.00;0.00;;;;;-143.47;100.00;63865.75;2100757;28;46360;-51
2023/08/02 03:00:53;;;;;;;;;0.00;0.00;;;;;-143.47;100.00;63865.75;2096000;28;46122;-49
2023/08/02 03:01:54;;;;;;;;;0.00;0.00;;;;;-143.47;100.00;63865.75;2102090;28;46514;-49
2023/08/02 03:02:54;;;;;;;;;0.00;0.00;;;;;-143.47;100.00;63865.75;2103838;27;46639;-49
2023/08/02 03:03:54;;;;;;;;;0.00;0.00;;;;;-143.47;100.00;63865.75;2096479;28;46447;-48
2023/08/02 03:04:55;;;;;;;;;0.00;0.00;;;;;-143.47;100.00;63865.75;2097667;28;46255;-49
2023/08/02 03:05:55;;;;;;;;;0.00;0.00;;;;;-143.47;100.00;63865.75;2096605;28;46154;-48
2023/08/02 03:06:55;;;;;;;;;0.00;0.00;;;;;-143.47;100.00;63865.75;2104052;28;46491;-48
2023/08/02 03:07:56;;;;;;;;;0.00;0.00;;;;;-143.47;100.00;63865.75;2104316;27;46238;-48
2023/08/02 03:08:56;;;;;;;;;0.00;0.00;;;;;-143.47;100.00;63865.75;2096589;28;46413;-50
2023/08/02 03:09:56;;;;;;;;;0.00;0.00;;;;;-143.47;100.00;63865.75;2098412;28;46417;-50
2023/08/02 03:10:57;;;;;;;;;0.00;0.00;;;;;-143.47;100.00;63865.75;2096898;28;46404;-50
2023/08/02 03:11:57;;;;;;;;;0.00;0.00;;;;;-143.47;100.00;63865.75;2097508;28;46207;-50
2023/08/02 03:12:57;;;;;;;;;0.00;0.00;;;;;-143.47;100.00;63865.75;2095970;28;46408;-52
2023/08/02 03:13:58;;;;;;;;;0.00;0.00;;;;;-143.47;100.00;63865.75;2094340;28;46402;-52
2023/08/02 03:14:58;;;;;;;;;0.00;0.00;;;;;-143.47;100.00;63865.75;2096522;28;46816;-48
2023/08/02 03:15:58;;;;;;;;;0.33;0.33;;;;;-143.47;100.00;63865.75;2097755;28;46404;-49
2023/08/02 03:16:59;;;;;;;;;0.33;0.33;;;;;-143.47;100.00;63865.75;2095974;28;46682;-48
2023/08/02 03:17:59;;;;;;;;;0.00;0.00;;;;;-143.47;100.00;63865.75;2096935;28;45403;-48
2023/08/02 03:18:59;;;;;;;;;0.00;0.00;;;;;-143.47;100.00;63865.75;2097243;28;46664;-49
2023/08/02 03:20:00;;;;;;;;;0.00;0.00;;;;;-143.47;100.00;63865.75;2104523;27;46447;-50
2023/08/02 03:21:00;;;;;;;;;0.00;0.00;;;;;-143.47;100.00;63865.75;2100532;27;46621;-49
2023/08/02 03:22:00;;;;;;;;;0.00;0.00;;;;;-143.47;100.00;63865.75;2096674;28;46489;-49
2023/08/02 03:23:01;;;;;;;;;3.00;0.67;;;;;-143.47;100.00;63865.75;2098380;28;46145;-49
2023/08/02 03:24:01;;;;;;;;;0.00;0.00;;;;;-143.47;100.00;63865.75;2098687;28;46314;-49
2023/08/02 03:25:01;;;;;;;;;0.00;0.00;;;;;-143.47;100.00;63865.75;2096381;27;46813;-48
2023/08/02 03:26:02;;;;;;;;;0.00;0.00;;;;;-143.47;100.00;63865.75;2097717;28;46576;-48
2023/08/02 03:27:02;;;;;;;;;0.00;0.00;;;;;-143.47;100.00;63865.75;2097107;28;46207;-51
2023/08/02 03:28:03;;;;;;;;;0.00;0.00;;;;;-143.47;100.00;63865.75;2086331;28;46027;-52
2023/08/02 03:29:03;;;;;;;;;0.00;0.00;;;;;-143.47;100.00;63865.75;2085490;28;46156;-49
2023/08/02 03:30:04;;;;;;;;;0.00;0.00;;;;;-143.47;100.00;63865.75;2096317;28;46361;-48
2023/08/02 03:31:04;;;;;;;;;0.25;0.25;;;;;-143.47;100.00;63865.75;2098131;28;46530;-52
2023/08/02 03:32:05;;;;;;;;;0.00;0.00;;;;;-143.47;100.00;63865.75;2096637;28;46335;-50
2023/08/02 03:33:06;;;;;;;;;0.00;0.00;;;;;-143.47;100.00;63865.75;2095439;28;46788;-48
2023/08/02 03:34:06;;;;;;;;;0.00;0.00;;;;;-143.47;100.00;63865.75;2104409;27;46334;-50
2023/08/02 03:35:07;;;;;;;;;0.00;0.00;;;;;-143.47;100.00;63865.75;2097272;27;46554;-52
2023/08/02 03:36:07;;;;;;;;;0.00;0.00;;;;;-143.47;100.00;63865.75;2096704;28;46242;-49
2023/08/02 03:37:08;;;;;;;;;0.00;0.00;;;;;-143.47;100.00;63865.75;2096983;28;46148;-53
2023/08/02 03:38:08;;;;;;;;;0.00;0.00;;;;;-143.47;100.00;63865.75;2096844;28;46232;-53
2023/08/02 03:39:11;;;;;;;;;0.00;0.00;;;;;-143.47;100.00;63865.75;2097631;28;46445;-53
2023/08/02 03:40:11;;;;;;;;;0.00;0.00;;;;;-143.47;100.00;63865.75;2097974;28;46210;-51
2023/08/02 03:41:12;;;;;;;;;0.00;0.00;;;;;-143.47;100.00;63865.75;2096662;28;46457;-51
2023/08/02 03:42:12;;;;;;;;;0.33;0.33;;;;;-143.47;100.00;63865.75;2096987;28;46429;-50
2023/08/02 03:43:13;;;;;;;;;0.00;0.00;;;;;-143.47;100.00;63865.75;2096398;28;46924;-49
2023/08/02 03:44:13;;;;;;;;;0.00;0.00;;;;;-143.47;100.00;63865.75;2097405;28;46356;-49
2023/08/02 03:45:13;;;;;;;;;0.00;0.00;;;;;-143.47;100.00;63865.75;2096894;28;46325;-53
2023/08/02 03:46:14;;;;;;;;;0.00;0.00;;;;;-143.47;100.00;63865.75;2096611;28;46799;-51
2023/08/02 03:47:14;;;;;;;;;0.00;0.00;;;;;-143.47;100.00;63865.75;2102779;28;45600;-51
2023/08/02 03:48:15;;;;;;;;;0.00;0.00;;;;;-143.47;100.00;63865.75;2103992;27;46372;-48
2023/08/02 03:49:15;;;;;;;;;0.00;0.00;;;;;-143.47;100.00;63865.75;2095348;28;45919;-50
2023/08/02 03:50:16;;;;;;;;;0.67;0.00;;;;;-143.47;100.00;63865.75;2099886;28;46119;-51
2023/08/02 03:51:16;;;;;;;;;0.00;0.00;;;;;-143.47;100.00;63865.75;2104699;27;47048;-49
2023/08/02 03:52:17;;;;;;;;;0.00;0.00;;;;;-143.47;100.00;63865.75;2104611;27;46899;-48
2023/08/02 03:53:17;;;;;;;;;0.00;0.00;;;;;-143.47;100.00;63865.75;2095083;28;46809;-51
2023/08/02 03:54:17;;;;;;;;;0.00;0.00;;;;;-143.47;100.00;63865.75;2095170;28;46396;-52
2023/08/02 03:55:18;;;;;;;;;0.00;0.00;;;;;-143.47;100.00;63865.75;2100334;28;46512;-52
2023/08/02 03:56:18;;;;;;;;;0.00;0.00;;;;;-143.47;100.00;63865.75;2096447;28;46282;-48
2023/08/02 03:57:18;;;;;;;;;0.00;0.00;;;;;-143.47;100.00;63865.75;2104654;27;46508;-53
2023/08/02 03:58:20;;;;;;;;;0.00;0.00;;;;;-143.47;100.00;63865.75;2102411;27;46252;-52
2023/08/02 03:59:20;;;;;;;;;0.00;0.00;;;;;-143.47;100.00;63865.75;2096841;28;46681;-50
2023/08/02 04:00:21;;;;;;;;;0.00;0.00;;;;;-143.47;100.00;63865.75;2097024;28;46594;-50
2023/08/02 04:01:21;;;;;;;;;0.00;0.00;;;;;-143.47;100.00;63865.75;2097889;28;46554;-48
2023/08/02 04:02:21;;;;;;;;;0.00;0.00;;;;;-143.47;100.00;63865.75;2096097;28;46442;-48
2023/08/02 04:03:22;;;;;;;;;0.00;0.00;;;;;-143.47;100.00;63865.75;2096455;28;46807;-51
2023/08/02 04:04:22;;;;;;;;;0.00;0.00;;;;;-143.47;100.00;63865.75;2096504;28;47466;-51
2023/08/02 04:05:22;;;;;;;;;0.00;0.00;;;;;-143.47;100.00;63865.75;2097001;28;46208;-49
2023/08/02 04:06:23;;;;;;;;;0.00;0.00;;;;;-143.47;100.00;63865.75;2105527;27;46456;-53
2023/08/02 04:07:23;;;;;;;;;0.00;0.00;;;;;-143.47;100.00;63865.75;2113236;27;46797;-51
2023/08/02 04:08:23;;;;;;;;;0.00;0.00;;;;;-143.47;100.00;63865.75;2096550;27;46444;-52
2023/08/02 04:09:24;;;;;;;;;0.00;0.00;;;;;-143.47;100.00;63865.75;2097813;28;46488;-50
2023/08/02 04:10:24;;;;;;;;;0.00;0.00;;;;;-143.47;100.00;63865.75;2096677;27;46708;-50
2023/08/02 04:11:25;;;;;;;;;0.00;0.00;;;;;-143.47;100.00;63865.75;2096212;28;46317;-49
2023/08/02 04:12:25;;;;;;;;;0.00;0.00;;;;;-143.47;100.00;63865.75;2096971;28;46258;-49
2023/08/02 04:13:25;;;;;;;;;0.00;0.00;;;;;-143.47;100.00;63865.75;2096327;28;46436;-51
2023/08/02 04:14:26;;;;;;;;;0.00;0.00;;;;;-143.47;100.00;63865.75;2097601;28;46220;-48
2023/08/02 04:15:26;;;;;;;;;0.00;0.00;;;;;-143.47;100.00;63865.75;2095915;28;46508;-50
2023/08/02 04:16:26;;;;;;;;;0.00;0.00;;;;;-143.47;100.00;63865.75;2098448;28;47042;-48
2023/08/02 04:17:27;;;;;;;;;0.00;0.00;;;;;-143.47;100.00;63865.75;2096058;28;46376;-47
2023/08/02 04:18:27;;;;;;;;;0.00;0.00;;;;;-143.47;100.00;63865.75;2095815;28;45991;-49
2023/08/02 04:19:27;;;;;;;;;0.00;0.00;;;;;-143.47;100.00;63865.75;2096428;28;46221;-50
2023/08/02 04:20:29;;;;;;;;;0.00;0.00;;;;;-143.47;100.00;63865.75;2097157;28;46236;-48
2023/08/02 04:21:29;;;;;;;;;0.00;0.00;;;;;-143.47;100.00;63865.75;2096329;28;46848;-48
2023/08/02 04:22:30;;;;;;;;;0.00;0.00;;;;;-143.47;100.00;63865.75;2096477;28;46358;-51
2023/08/02 04:23:31;;;;;;;;;0.00;0.00;;;;;-143.47;100.00;63865.75;2088782;28;46867;-49
2023/08/02 04:24:33;;;;;;;;;0.00;0.00;;;;;-143.47;100.00;63865.75;2095751;28;46614;-48
2023/08/02 04:25:33;;;;;;;;;0.25;0.25;;;;;-143.47;100.00;63865.75;2096343;28;46646;-48
2023/08/02 04:26:33;;;;;;;;;0.00;0.00;;;;;-143.47;100.00;63865.75;2096451;28;46206;-49
2023/08/02 04:27:33;;;;;;;;;0.00;0.00;;;;;-143.47;100.00;63865.75;2096043;28;46908;-48
2023/08/02 04:28:34;;;;;;;;;0.00;0.00;;;;;-143.47;100.00;63865.75;2096571;28;45711;-49
2023/08/02 04:29:37;;;;;;;;;0.00;0.00;;;;;-143.47;100.00;63865.75;2096189;28;46350;-48
2023/08/02 04:30:37;;;;;;;;;0.00;0.00;;;;;-143.47;100.00;63865.75;2096175;28;46999;-49
2023/08/02 04:31:37;;;;;;;;;0.00;0.00;;;;;-143.47;100.00;63865.75;2096309;28;46669;-49
2023/08/02 04:32:38;;;;;;;;;0.00;0.00;;;;;-143.47;100.00;63865.75;2095715;28;46330;-46
2023/08/02 04:33:38;;;;;;;;;0.00;0.00;;;;;-143.47;100.00;63865.75;2089361;28;46583;-47
2023/08/02 04:34:39;;;;;;;;;0.00;0.00;;;;;-143.47;100.00;63865.75;2093054;28;46285;-47
2023/08/02 04:35:39;;;;;;;;;0.00;0.00;;;;;-143.47;100.00;63865.75;2097687;28;46234;-49
2023/08/02 04:36:39;;;;;;;;;0.00;0.00;;;;;-143.47;100.00;63865.75;2097571;28;46375;-48